Time;durP1;ratioP1;P1;durP2;ratioP2;P2;SDS_P1;SDS_P2;PMS_P1;PMS_P2;Temp;Humidity;BMP_temperature;BMP_pressure;BME280_temperature;BME280_humidity;BME280_pressure;Samples;Min_cycle;Max_cycle;Signal;HPM_P1;HPM_P2
2023/09/26 00:01:08;;;;;;;;;;;;;;;;;;5053757;28;19997;-73
2023/09/26 00:03:34;;;;;;;;;;;;;;;;;;5053956;28;19993;-72
2023/09/26 00:06:00;;;;;;;;;;;;;;;;;;5053539;28;20001;-72
2023/09/26 00:08:26;;;;;;;;;;;;;;;;;;5054243;28;20028;-72
2023/09/26 00:10:53;;;;;;;;;;;;;;;;;;5053646;28;20033;-73
2023/09/26 00:13:19;;;;;;;;;;;;;;;;;;5053589;28;20013;-73
2023/09/26 00:15:45;;;;;;;;;;;;;;;;;;5053881;28;20366;-73
2023/09/26 00:18:11;;;;;;;;;;;;;;;;;;5053834;28;20064;-72
2023/09/26 00:20:39;;;;;;;;;;;;;;;;;;5053936;28;19989;-72
2023/09/26 00:23:06;;;;;;;;;;;;;;;;;;5053780;28;19986;-72
2023/09/26 00:25:32;;;;;;;;;;;;;;;;;;5053820;28;19981;-72
2023/09/26 00:27:58;;;;;;;;;;;;;;;;;;5053885;28;19986;-74
2023/09/26 00:30:26;;;;;;;;;;;;;;;;;;5053773;28;20025;-73
2023/09/26 00:32:52;;;;;;;;;;;;;;;;;;5053473;28;19989;-72
2023/09/26 00:35:19;;;;;;;;;;;;;;;;;;5053202;28;19992;-73
2023/09/26 00:37:45;;;;;;;;;;;;;;;;;;5053836;28;19989;-75
2023/09/26 00:40:15;;;;;;;;;;;;;;;;;;5053424;28;20055;-73
2023/09/26 00:42:41;;;;;;;;;;;;;;;;;;5052061;28;20069;-74
2023/09/26 00:45:07;;;;;;;;;;;;;;;;;;5053287;28;20057;-73
2023/09/26 00:47:35;;;;;;;;;;;;;;;;;;5053072;28;19986;-72
2023/09/26 00:50:01;;;;;;;;;;;;;;;;;;5053228;28;20584;-72
2023/09/26 00:52:27;;;;;;;;;;;;;;;;;;5053312;28;19985;-73
2023/09/26 00:54:53;;;;;;;;;;;;;;;;;;5053116;28;19982;-73
2023/09/26 00:57:19;;;;;;;;;;;;;;;;;;5053199;28;19986;-73
2023/09/26 00:59:45;;;;;;;;;;;;;;;;;;5052713;28;20014;-73
2023/09/26 01:02:11;;;;;;;;;;;;;;;;;;5053184;28;19986;-72
2023/09/26 01:04:37;;;;;;;;;;;;;;;;;;5052550;28;20040;-73
2023/09/26 01:07:03;;;;;;;;;;;;;;;;;;5052953;28;19993;-72
2023/09/26 01:09:29;;;;;;;;;;;;;;;;;;5052771;28;20385;-72
2023/09/26 01:11:55;;;;;;;;;;;;;;;;;;5052810;28;19982;-72
2023/09/26 01:14:21;;;;;;;;;;;;;;;;;;5052557;28;20001;-72
2023/09/26 01:16:47;;;;;;;;;;;;;;;;;;5052668;28;20019;-72
2023/09/26 01:19:12;;;;;;;;;;;;;;;;;;5052680;28;20009;-72
2023/09/26 01:21:38;;;;;;;;;;;;;;;;;;5052668;28;19986;-70
2023/09/26 01:24:04;;;;;;;;;;;;;;;;;;5051910;28;20073;-72
2023/09/26 01:26:30;;;;;;;;;;;;;;;;;;5052361;28;20040;-71
2023/09/26 01:28:56;;;;;;;;;;;;;;;;;;5052433;28;19992;-71
2023/09/26 01:31:22;;;;;;;;;;;;;;;;;;5052676;28;19990;-72
2023/09/26 01:33:48;;;;;;;;;;;;;;;;;;5052180;28;20081;-72
2023/09/26 01:36:14;;;;;;;;;;;;;;;;;;5052105;28;19993;-73
2023/09/26 01:38:40;;;;;;;;;;;;;;;;;;5052422;28;20009;-72
2023/09/26 01:41:06;;;;;;;;;;;;;;;;;;5052274;28;19986;-74
2023/09/26 01:43:32;;;;;;;;;;;;;;;;;;5051791;28;20013;-72
2023/09/26 01:45:58;;;;;;;;;;;;;;;;;;5051878;28;20196;-72
2023/09/26 01:48:24;;;;;;;;;;;;;;;;;;5052152;28;19982;-72
2023/09/26 01:50:50;;;;;;;;;;;;;;;;;;5052329;28;19986;-73
2023/09/26 01:53:16;;;;;;;;;;;;;;;;;;5052032;28;20506;-73
2023/09/26 01:55:42;;;;;;;;;;;;;;;;;;5051841;28;19994;-73
2023/09/26 01:58:08;;;;;;;;;;;;;;;;;;5050473;28;19998;-74
2023/09/26 02:00:34;;;;;;;;;;;;;;;;;;5051897;28;19990;-73
2023/09/26 02:03:00;;;;;;;;;;;;;;;;;;5051894;28;19988;-73
2023/09/26 02:05:26;;;;;;;;;;;;;;;;;;5051377;28;20005;-72
2023/09/26 02:07:52;;;;;;;;;;;;;;;;;;5051406;28;19993;-73
2023/09/26 02:10:18;;;;;;;;;;;;;;;;;;5051988;28;19986;-72
2023/09/26 02:12:44;;;;;;;;;;;;;;;;;;5051604;28;20489;-71
2023/09/26 02:15:12;;;;;;;;;;;;;;;;;;5051609;28;19986;-72
2023/09/26 02:17:38;;;;;;;;;;;;;;;;;;5051753;28;20338;-72
2023/09/26 02:20:08;;;;;;;;;;;;;;;;;;5051333;28;20486;-73
2023/09/26 02:22:34;;;;;;;;;;;;;;;;;;5051703;28;19982;-73
2023/09/26 02:24:59;;;;;;;;;;;;;;;;;;5051495;28;19989;-74
2023/09/26 02:27:25;;;;;;;;;;;;;;;;;;5051750;28;19996;-74
2023/09/26 02:29:51;;;;;;;;;;;;;;;;;;5051413;28;19982;-73
2023/09/26 02:32:17;;;;;;;;;;;;;;;;;;5051403;28;20076;-72
2023/09/26 02:34:43;;;;;;;;;;;;;;;;;;5051514;28;19993;-73
2023/09/26 02:37:09;;;;;;;;;;;;;;;;;;5051452;28;19990;-72
2023/09/26 02:39:35;;;;;;;;;;;;;;;;;;5051437;28;20013;-72
2023/09/26 02:42:01;;;;;;;;;;;;;;;;;;5051421;28;20085;-73
2023/09/26 02:44:27;;;;;;;;;;;;;;;;;;5050922;28;20053;-74
2023/09/26 02:46:53;;;;;;;;;;;;;;;;;;5051385;28;19986;-73
2023/09/26 02:49:19;;;;;;;;;;;;;;;;;;5051518;28;19986;-71
2023/09/26 02:51:45;;;;;;;;;;;;;;;;;;5051508;28;19986;-71
2023/09/26 02:54:11;;;;;;;;;;;;;;;;;;5050983;28;20209;-72
2023/09/26 02:56:37;;;;;;;;;;;;;;;;;;5051218;28;19986;-72
2023/09/26 02:59:03;;;;;;;;;;;;;;;;;;5051282;28;20066;-73
2023/09/26 03:01:28;;;;;;;;;;;;;;;;;;5051270;28;20445;-72
2023/09/26 03:03:55;;;;;;;;;;;;;;;;;;5051113;28;20216;-73
2023/09/26 03:06:21;;;;;;;;;;;;;;;;;;5050458;28;20509;-74
2023/09/26 03:08:47;;;;;;;;;;;;;;;;;;5049958;28;20064;-71
2023/09/26 03:11:13;;;;;;;;;;;;;;;;;;5050838;28;19996;-71
2023/09/26 03:13:39;;;;;;;;;;;;;;;;;;5051093;28;19982;-71
2023/09/26 03:16:08;;;;;;;;;;;;;;;;;;5051013;28;20012;-71
2023/09/26 03:18:34;;;;;;;;;;;;;;;;;;5050830;28;20013;-72
2023/09/26 03:21:00;;;;;;;;;;;;;;;;;;5050926;28;20088;-71
2023/09/26 03:23:26;;;;;;;;;;;;;;;;;;5050899;28;20072;-70
2023/09/26 03:25:52;;;;;;;;;;;;;;;;;;5050811;28;19985;-71
2023/09/26 03:28:18;;;;;;;;;;;;;;;;;;5050367;28;20029;-70
2023/09/26 03:30:46;;;;;;;;;;;;;;;;;;5050851;28;19986;-72
2023/09/26 03:33:12;;;;;;;;;;;;;;;;;;5050868;28;19989;-72
2023/09/26 03:35:38;;;;;;;;;;;;;;;;;;5050451;28;19990;-71
2023/09/26 03:38:04;;;;;;;;;;;;;;;;;;5050801;28;19981;-71
2023/09/26 03:40:30;;;;;;;;;;;;;;;;;;5050674;28;20015;-70
2023/09/26 03:42:56;;;;;;;;;;;;;;;;;;5050737;28;20081;-72
2023/09/26 03:45:22;;;;;;;;;;;;;;;;;;5050543;28;20025;-71
2023/09/26 03:47:48;;;;;;;;;;;;;;;;;;5053833;28;19989;-71
2023/09/26 03:50:14;;;;;;;;;;;;;;;;;;5054460;28;19982;-72
2023/09/26 03:52:40;;;;;;;;;;;;;;;;;;5054113;28;20036;-72
2023/09/26 03:55:06;;;;;;;;;;;;;;;;;;5054367;28;19989;-72
2023/09/26 03:57:32;;;;;;;;;;;;;;;;;;5054167;28;19982;-71
2023/09/26 03:59:58;;;;;;;;;;;;;;;;;;5054285;28;20023;-71
2023/09/26 04:02:24;;;;;;;;;;;;;;;;;;5053909;28;20008;-71
2023/09/26 04:04:50;;;;;;;;;;;;;;;;;;5053673;28;20469;-71
2023/09/26 04:07:16;;;;;;;;;;;;;;;;;;5053978;28;20016;-70
2023/09/26 04:09:42;;;;;;;;;;;;;;;;;;5054069;28;19992;-70
2023/09/26 04:12:08;;;;;;;;;;;;;;;;;;5053597;28;19986;-70
2023/09/26 04:14:34;;;;;;;;;;;;;;;;;;5053392;28;19989;-71
2023/09/26 04:17:00;;;;;;;;;;;;;;;;;;5053825;28;19982;-70
2023/09/26 04:19:26;;;;;;;;;;;;;;;;;;5053801;28;20051;-71
2023/09/26 04:21:52;;;;;;;;;;;;;;;;;;5053706;28;20036;-71
2023/09/26 04:24:18;;;;;;;;;;;;;;;;;;5053669;28;20013;-71
2023/09/26 04:26:44;;;;;;;;;;;;;;;;;;5053217;28;19989;-71
2023/09/26 04:29:10;;;;;;;;;;;;;;;;;;5053649;28;19982;-73
2023/09/26 04:31:36;;;;;;;;;;;;;;;;;;5053602;28;20029;-72
2023/09/26 04:34:02;;;;;;;;;;;;;;;;;;5053563;28;20074;-70
2023/09/26 04:36:28;;;;;;;;;;;;;;;;;;5053245;28;19989;-71
2023/09/26 04:38:54;;;;;;;;;;;;;;;;;;5053523;28;20017;-72
2023/09/26 04:41:20;;;;;;;;;;;;;;;;;;5053443;28;19990;-71
2023/09/26 04:43:46;;;;;;;;;;;;;;;;;;5053288;28;20024;-71
2023/09/26 04:46:12;;;;;;;;;;;;;;;;;;5051988;28;19996;-72
2023/09/26 04:48:38;;;;;;;;;;;;;;;;;;5052000;28;19989;-70
2023/09/26 04:51:04;;;;;;;;;;;;;;;;;;5050865;28;20408;-69
2023/09/26 04:53:29;;;;;;;;;;;;;;;;;;5051025;28;19989;-70
2023/09/26 04:55:55;;;;;;;;;;;;;;;;;;5053112;28;19982;-69
2023/09/26 04:58:21;;;;;;;;;;;;;;;;;;5051710;28;20005;-69
2023/09/26 05:00:47;;;;;;;;;;;;;;;;;;5052000;28;20008;-69
2023/09/26 05:03:14;;;;;;;;;;;;;;;;;;5053119;28;20028;-69
2023/09/26 05:05:40;;;;;;;;;;;;;;;;;;5052638;28;20002;-69
2023/09/26 05:08:06;;;;;;;;;;;;;;;;;;5052796;28;19992;-69
2023/09/26 05:10:32;;;;;;;;;;;;;;;;;;5051143;28;20039;-68
2023/09/26 05:12:58;;;;;;;;;;;;;;;;;;5051460;28;19985;-69
2023/09/26 05:15:24;;;;;;;;;;;;;;;;;;5052454;28;20115;-68
2023/09/26 05:17:50;;;;;;;;;;;;;;;;;;5050890;28;19986;-69
2023/09/26 05:20:16;;;;;;;;;;;;;;;;;;5052483;28;20559;-70
2023/09/26 05:22:42;;;;;;;;;;;;;;;;;;5051988;28;19986;-70
2023/09/26 05:25:08;;;;;;;;;;;;;;;;;;5052594;28;19993;-71
2023/09/26 05:27:33;;;;;;;;;;;;;;;;;;5052472;28;19982;-70
2023/09/26 05:29:59;;;;;;;;;;;;;;;;;;5052317;28;19990;-69
2023/09/26 05:32:25;;;;;;;;;;;;;;;;;;5052408;28;19989;-69
2023/09/26 05:34:51;;;;;;;;;;;;;;;;;;5052252;28;20094;-70
2023/09/26 05:37:17;;;;;;;;;;;;;;;;;;5051937;28;20028;-68
2023/09/26 05:39:43;;;;;;;;;;;;;;;;;;5069758;28;20067;-70
2023/09/26 05:42:10;;;;;;;;;;;;;;;;;;5071699;28;19997;-69
2023/09/26 05:44:36;;;;;;;;;;;;;;;;;;5071298;28;20137;-69
2023/09/26 05:47:02;;;;;;;;;;;;;;;;;;5071676;28;20449;-70
2023/09/26 05:49:28;;;;;;;;;;;;;;;;;;5072330;28;20658;-69
2023/09/26 05:51:54;;;;;;;;;;;;;;;;;;5055098;28;20152;-71
2023/09/26 05:54:19;;;;;;;;;;;;;;;;;;5049340;28;19990;-69
2023/09/26 05:56:45;;;;;;;;;;;;;;;;;;5051528;28;20458;-70
2023/09/26 05:59:11;;;;;;;;;;;;;;;;;;5051512;28;20010;-70
2023/09/26 06:01:37;;;;;;;;;;;;;;;;;;5051746;28;19988;-70
2023/09/26 06:04:04;;;;;;;;;;;;;;;;;;5052023;28;19990;-70
2023/09/26 06:06:30;;;;;;;;;;;;;;;;;;5035562;28;20479;-71
2023/09/26 06:08:56;;;;;;;;;;;;;;;;;;5031414;28;19993;-70
2023/09/26 06:11:22;;;;;;;;;;;;;;;;;;5031831;28;19982;-70
2023/09/26 06:13:48;;;;;;;;;;;;;;;;;;5032238;28;19982;-73
2023/09/26 06:16:14;;;;;;;;;;;;;;;;;;5031212;28;20077;-72
2023/09/26 06:18:40;;;;;;;;;;;;;;;;;;5042703;28;20166;-72
2023/09/26 06:21:06;;;;;;;;;;;;;;;;;;5051403;28;19990;-71
2023/09/26 06:23:32;;;;;;;;;;;;;;;;;;5051464;28;19986;-70
2023/09/26 06:25:58;;;;;;;;;;;;;;;;;;5051320;28;19996;-70
2023/09/26 06:28:24;;;;;;;;;;;;;;;;;;5051410;28;19982;-71
2023/09/26 06:30:50;;;;;;;;;;;;;;;;;;5050965;28;20027;-70
2023/09/26 06:33:16;;;;;;;;;;;;;;;;;;5032456;28;20044;-71
2023/09/26 06:35:42;;;;;;;;;;;;;;;;;;5029974;28;19990;-70
2023/09/26 06:38:08;;;;;;;;;;;;;;;;;;5035787;28;20033;-69
2023/09/26 06:40:34;;;;;;;;;;;;;;;;;;5037997;28;20415;-70
2023/09/26 06:43:03;;;;;;;;;;;;;;;;;;5028750;28;20245;-70
2023/09/26 06:45:28;;;;;;;;;;;;;;;;;;5030676;28;20148;-69
2023/09/26 06:47:54;;;;;;;;;;;;;;;;;;5034558;28;20025;-71
2023/09/26 06:50:21;;;;;;;;;;;;;;;;;;5044186;28;19994;-70
2023/09/26 06:52:47;;;;;;;;;;;;;;;;;;5050019;28;19993;-69
2023/09/26 06:55:13;;;;;;;;;;;;;;;;;;5049215;28;20001;-70
2023/09/26 06:57:39;;;;;;;;;;;;;;;;;;5050914;28;20147;-70
2023/09/26 07:00:05;;;;;;;;;;;;;;;;;;5048417;28;20032;-69
2023/09/26 07:02:31;;;;;;;;;;;;;;;;;;5036319;28;20037;-68
2023/09/26 07:04:57;;;;;;;;;;;;;;;;;;5033960;28;20052;-69
2023/09/26 07:07:23;;;;;;;;;;;;;;;;;;5050058;28;20409;-71
2023/09/26 07:09:49;;;;;;;;;;;;;;;;;;5048416;28;20092;-69
2023/09/26 07:12:17;;;;;;;;;;;;;;;;;;5034314;28;20035;-68
2023/09/26 07:14:43;;;;;;;;;;;;;;;;;;5045682;28;20031;-69
2023/09/26 07:17:09;;;;;;;;;;;;;;;;;;5050868;28;19989;-69
2023/09/26 07:19:35;;;;;;;;;;;;;;;;;;5051202;28;20010;-70
2023/09/26 07:22:01;;;;;;;;;;;;;;;;;;5053343;28;19985;-69
2023/09/26 07:24:27;;;;;;;;;;;;;;;;;;5054709;28;19993;-69
2023/09/26 07:26:53;;;;;;;;;;;;;;;;;;5054732;28;19982;-70
2023/09/26 07:29:19;;;;;;;;;;;;;;;;;;5054797;28;20088;-70
2023/09/26 07:31:46;;;;;;;;;;;;;;;;;;5053341;28;20044;-70
2023/09/26 07:34:11;;;;;;;;;;;;;;;;;;5054530;28;20040;-72
2023/09/26 07:36:37;;;;;;;;;;;;;;;;;;5054375;28;20446;-70
2023/09/26 07:39:04;;;;;;;;;;;;;;;;;;5054434;28;20493;-70
2023/09/26 07:41:30;;;;;;;;;;;;;;;;;;5054363;28;19989;-69
2023/09/26 07:43:56;;;;;;;;;;;;;;;;;;5054183;28;20025;-71
2023/09/26 07:46:22;;;;;;;;;;;;;;;;;;5053862;28;19982;-69
2023/09/26 07:48:49;;;;;;;;;;;;;;;;;;5054280;28;19986;-69
2023/09/26 07:51:16;;;;;;;;;;;;;;;;;;5054302;28;19986;-69
2023/09/26 07:53:42;;;;;;;;;;;;;;;;;;5054257;28;20035;-69
2023/09/26 07:56:08;;;;;;;;;;;;;;;;;;5054106;28;20008;-69
2023/09/26 07:58:34;;;;;;;;;;;;;;;;;;5054198;28;20016;-71
2023/09/26 08:01:06;;;;;;;;;;;;;;;;;;5054342;28;20073;-72
2023/09/26 08:03:32;;;;;;;;;;;;;;;;;;5054032;28;20370;-70
2023/09/26 08:05:58;;;;;;;;;;;;;;;;;;5053859;28;20008;-69
2023/09/26 08:08:24;;;;;;;;;;;;;;;;;;5054009;28;19982;-70
2023/09/26 08:10:50;;;;;;;;;;;;;;;;;;5052800;28;20370;-69
2023/09/26 08:13:16;;;;;;;;;;;;;;;;;;5054019;28;19986;-69
2023/09/26 08:15:42;;;;;;;;;;;;;;;;;;5053731;28;19985;-70
2023/09/26 08:18:08;;;;;;;;;;;;;;;;;;5053723;28;20564;-70
2023/09/26 08:20:34;;;;;;;;;;;;;;;;;;5053743;28;19986;-70
2023/09/26 08:22:59;;;;;;;;;;;;;;;;;;5053549;28;19993;-70
2023/09/26 08:25:26;;;;;;;;;;;;;;;;;;5053469;28;20457;-70
2023/09/26 08:27:52;;;;;;;;;;;;;;;;;;5053601;28;19986;-70
2023/09/26 08:30:18;;;;;;;;;;;;;;;;;;5053332;28;19986;-70
2023/09/26 08:32:44;;;;;;;;;;;;;;;;;;5053587;28;19989;-70
2023/09/26 08:35:10;;;;;;;;;;;;;;;;;;5053493;28;20008;-70
2023/09/26 08:37:36;;;;;;;;;;;;;;;;;;5053399;28;19985;-70
2023/09/26 08:40:02;;;;;;;;;;;;;;;;;;5053240;28;20005;-70
2023/09/26 08:42:28;;;;;;;;;;;;;;;;;;5053462;28;19981;-70
2023/09/26 08:44:54;;;;;;;;;;;;;;;;;;5053001;28;20021;-70
2023/09/26 08:47:20;;;;;;;;;;;;;;;;;;5053508;28;20157;-70
2023/09/26 08:49:46;;;;;;;;;;;;;;;;;;5051956;28;19986;-70
2023/09/26 08:52:12;;;;;;;;;;;;;;;;;;5053323;28;19992;-70
2023/09/26 08:54:37;;;;;;;;;;;;;;;;;;5052966;28;19994;-70
2023/09/26 08:57:03;;;;;;;;;;;;;;;;;;5053065;28;19992;-70
2023/09/26 08:59:31;;;;;;;;;;;;;;;;;;5053120;28;20014;-72
2023/09/26 09:01:57;;;;;;;;;;;;;;;;;;5053429;28;19993;-70
2023/09/26 09:04:23;;;;;;;;;;;;;;;;;;5052928;28;19992;-70
2023/09/26 09:06:49;;;;;;;;;;;;;;;;;;5052732;28;20088;-69
2023/09/26 09:09:16;;;;;;;;;;;;;;;;;;5052743;28;19986;-70
2023/09/26 09:11:42;;;;;;;;;;;;;;;;;;5053150;28;20020;-70
2023/09/26 09:14:08;;;;;;;;;;;;;;;;;;5052689;28;20365;-71
2023/09/26 09:16:34;;;;;;;;;;;;;;;;;;5052964;28;20357;-70
2023/09/26 09:19:00;;;;;;;;;;;;;;;;;;5052935;28;20029;-69
2023/09/26 09:21:35;;;;;;;;;;;;;;;;;;5052616;28;20064;-69
2023/09/26 09:24:01;;;;;;;;;;;;;;;;;;5052793;28;20103;-69
2023/09/26 09:26:27;;;;;;;;;;;;;;;;;;5052704;28;20040;-70
2023/09/26 09:28:55;;;;;;;;;;;;;;;;;;5052788;28;20188;-70
2023/09/26 09:31:21;;;;;;;;;;;;;;;;;;5050989;28;19985;-70
2023/09/26 09:33:47;;;;;;;;;;;;;;;;;;5052640;28;20343;-70
2023/09/26 09:36:13;;;;;;;;;;;;;;;;;;5052446;28;20045;-70
2023/09/26 09:38:39;;;;;;;;;;;;;;;;;;5052468;28;20014;-70
2023/09/26 09:41:05;;;;;;;;;;;;;;;;;;5052327;28;19986;-69
2023/09/26 09:43:31;;;;;;;;;;;;;;;;;;5051773;28;20044;-70
2023/09/26 09:45:57;;;;;;;;;;;;;;;;;;5052061;28;20043;-71
2023/09/26 09:48:23;;;;;;;;;;;;;;;;;;5052072;28;20110;-71
2023/09/26 09:50:49;;;;;;;;;;;;;;;;;;5052061;28;19992;-69
2023/09/26 09:53:16;;;;;;;;;;;;;;;;;;5052119;28;20512;-70
2023/09/26 09:55:42;;;;;;;;;;;;;;;;;;5052089;28;19986;-69
2023/09/26 09:58:11;;;;;;;;;;;;;;;;;;5051918;28;20472;-70
2023/09/26 10:00:37;;;;;;;;;;;;;;;;;;5051777;28;20264;-70
2023/09/26 10:03:03;;;;;;;;;;;;;;;;;;5052080;28;19986;-70
2023/09/26 10:05:30;;;;;;;;;;;;;;;;;;5052004;28;20009;-71
2023/09/26 10:07:57;;;;;;;;;;;;;;;;;;5051646;28;20441;-70
2023/09/26 10:10:24;;;;;;;;;;;;;;;;;;5051968;28;20045;-71
2023/09/26 10:12:50;;;;;;;;;;;;;;;;;;5051672;28;20084;-69
2023/09/26 10:15:17;;;;;;;;;;;;;;;;;;5051744;28;20053;-70
2023/09/26 10:17:43;;;;;;;;;;;;;;;;;;5051318;28;20007;-70
2023/09/26 10:20:09;;;;;;;;;;;;;;;;;;5051617;28;20550;-71
2023/09/26 10:22:35;;;;;;;;;;;;;;;;;;5051982;28;20389;-70
2023/09/26 10:25:02;;;;;;;;;;;;;;;;;;5051680;28;20076;-70
2023/09/26 10:27:28;;;;;;;;;;;;;;;;;;5051875;28;19993;-70
2023/09/26 10:29:54;;;;;;;;;;;;;;;;;;5051295;28;19985;-71
2023/09/26 10:32:20;;;;;;;;;;;;;;;;;;5051589;28;20327;-71
2023/09/26 10:34:46;;;;;;;;;;;;;;;;;;5051484;28;20021;-71
2023/09/26 10:37:12;;;;;;;;;;;;;;;;;;5051931;28;19990;-71
2023/09/26 10:39:38;;;;;;;;;;;;;;;;;;5051231;28;20263;-72
2023/09/26 10:42:04;;;;;;;;;;;;;;;;;;5051607;28;19982;-70
2023/09/26 10:44:30;;;;;;;;;;;;;;;;;;5051418;28;20022;-71
2023/09/26 10:46:56;;;;;;;;;;;;;;;;;;5051448;28;20507;-71
2023/09/26 10:49:22;;;;;;;;;;;;;;;;;;5051582;28;19992;-70
2023/09/26 10:51:48;;;;;;;;;;;;;;;;;;5051366;28;20350;-71
2023/09/26 10:54:13;;;;;;;;;;;;;;;;;;5051357;28;19982;-71
2023/09/26 10:56:41;;;;;;;;;;;;;;;;;;5053033;28;19989;-71
2023/09/26 10:59:07;;;;;;;;;;;;;;;;;;5055372;28;20473;-71
2023/09/26 11:01:33;;;;;;;;;;;;;;;;;;5055354;28;19986;-71
2023/09/26 11:03:59;;;;;;;;;;;;;;;;;;5055052;28;20434;-71
2023/09/26 11:06:24;;;;;;;;;;;;;;;;;;5055437;28;20110;-71
2023/09/26 11:08:50;;;;;;;;;;;;;;;;;;5055394;28;20269;-72
2023/09/26 11:11:18;;;;;;;;;;;;;;;;;;5055261;28;19986;-70
2023/09/26 11:13:44;;;;;;;;;;;;;;;;;;5055240;28;20047;-71
2023/09/26 11:16:10;;;;;;;;;;;;;;;;;;5054823;28;20377;-72
2023/09/26 11:18:36;;;;;;;;;;;;;;;;;;5055151;28;20013;-70
2023/09/26 11:21:02;;;;;;;;;;;;;;;;;;5055227;28;19986;-71
2023/09/26 11:23:28;;;;;;;;;;;;;;;;;;5055167;28;19982;-73
2023/09/26 11:25:56;;;;;;;;;;;;;;;;;;5054704;28;19982;-72
2023/09/26 11:28:22;;;;;;;;;;;;;;;;;;5055491;28;20092;-71
2023/09/26 11:30:48;;;;;;;;;;;;;;;;;;5054601;28;20075;-71
2023/09/26 11:33:14;;;;;;;;;;;;;;;;;;5054977;28;19985;-70
2023/09/26 11:35:40;;;;;;;;;;;;;;;;;;5055031;28;19994;-71
2023/09/26 11:38:06;;;;;;;;;;;;;;;;;;5054650;28;20032;-71
2023/09/26 11:40:32;;;;;;;;;;;;;;;;;;5054670;28;20010;-71
2023/09/26 11:42:58;;;;;;;;;;;;;;;;;;5055080;28;20013;-71
2023/09/26 11:45:24;;;;;;;;;;;;;;;;;;5054457;28;20108;-71
2023/09/26 11:47:50;;;;;;;;;;;;;;;;;;5054616;28;19992;-71
2023/09/26 11:50:15;;;;;;;;;;;;;;;;;;5054232;28;19993;-71
2023/09/26 11:52:42;;;;;;;;;;;;;;;;;;5054439;28;20017;-72
2023/09/26 11:55:08;;;;;;;;;;;;;;;;;;5054426;28;20221;-72
2023/09/26 11:57:34;;;;;;;;;;;;;;;;;;5054569;28;20140;-71
2023/09/26 12:00:00;;;;;;;;;;;;;;;;;;5054179;28;20018;-71
2023/09/26 12:02:26;;;;;;;;;;;;;;;;;;5054162;28;19982;-71
2023/09/26 12:04:51;;;;;;;;;;;;;;;;;;5054018;28;20143;-71
2023/09/26 12:07:17;;;;;;;;;;;;;;;;;;5053564;28;20472;-71
2023/09/26 12:09:44;;;;;;;;;;;;;;;;;;5054002;28;19986;-71
2023/09/26 12:12:10;;;;;;;;;;;;;;;;;;5054174;28;19990;-71
2023/09/26 12:14:35;;;;;;;;;;;;;;;;;;5054058;28;19992;-71
2023/09/26 12:17:05;;;;;;;;;;;;;;;;;;5053973;28;19986;-70
2023/09/26 12:19:31;;;;;;;;;;;;;;;;;;5052665;28;20014;-72
2023/09/26 12:21:57;;;;;;;;;;;;;;;;;;5054084;28;20035;-72
2023/09/26 12:24:23;;;;;;;;;;;;;;;;;;5053977;28;20343;-71
2023/09/26 12:26:49;;;;;;;;;;;;;;;;;;5053840;28;20029;-72
2023/09/26 12:29:15;;;;;;;;;;;;;;;;;;5054116;28;20008;-72
2023/09/26 12:31:42;;;;;;;;;;;;;;;;;;5053738;28;20043;-71
2023/09/26 12:34:08;;;;;;;;;;;;;;;;;;5053794;28;20032;-71
2023/09/26 12:36:34;;;;;;;;;;;;;;;;;;5053739;28;20025;-71
2023/09/26 12:39:00;;;;;;;;;;;;;;;;;;5053460;28;20010;-72
2023/09/26 12:41:26;;;;;;;;;;;;;;;;;;5053585;28;20434;-72
2023/09/26 12:43:52;;;;;;;;;;;;;;;;;;5053169;28;20152;-72
2023/09/26 12:46:18;;;;;;;;;;;;;;;;;;5053494;28;20039;-73
2023/09/26 12:48:44;;;;;;;;;;;;;;;;;;5053026;28;19986;-71
2023/09/26 12:51:10;;;;;;;;;;;;;;;;;;5053300;28;20044;-70
2023/09/26 12:53:36;;;;;;;;;;;;;;;;;;5053463;28;19985;-71
2023/09/26 12:56:02;;;;;;;;;;;;;;;;;;5053096;28;20024;-72
2023/09/26 12:58:28;;;;;;;;;;;;;;;;;;5052572;28;19993;-71
2023/09/26 13:00:53;;;;;;;;;;;;;;;;;;5053229;28;19996;-72
2023/09/26 13:03:19;;;;;;;;;;;;;;;;;;5053112;28;20047;-71
2023/09/26 13:05:46;;;;;;;;;;;;;;;;;;5053175;28;20084;-72
2023/09/26 13:08:12;;;;;;;;;;;;;;;;;;5053360;28;20059;-71
2023/09/26 13:10:37;;;;;;;;;;;;;;;;;;5053113;28;19996;-72
2023/09/26 13:13:03;;;;;;;;;;;;;;;;;;5051478;28;19985;-71
2023/09/26 13:15:31;;;;;;;;;;;;;;;;;;5052916;28;20041;-71
2023/09/26 13:17:57;;;;;;;;;;;;;;;;;;5053248;28;20017;-70
2023/09/26 13:20:23;;;;;;;;;;;;;;;;;;5051945;28;20092;-70
2023/09/26 13:22:49;;;;;;;;;;;;;;;;;;5052715;28;20033;-70
2023/09/26 13:25:15;;;;;;;;;;;;;;;;;;5052794;28;19989;-71
2023/09/26 13:27:41;;;;;;;;;;;;;;;;;;5052521;28;19988;-71
2023/09/26 13:30:07;;;;;;;;;;;;;;;;;;5052574;28;20043;-71
2023/09/26 13:32:33;;;;;;;;;;;;;;;;;;5052836;28;19989;-71
2023/09/26 13:35:01;;;;;;;;;;;;;;;;;;5052327;28;19982;-71
2023/09/26 13:37:27;;;;;;;;;;;;;;;;;;5052441;28;19982;-71
2023/09/26 13:39:53;;;;;;;;;;;;;;;;;;5052240;28;20152;-71
2023/09/26 13:42:18;;;;;;;;;;;;;;;;;;5052794;28;19989;-71
2023/09/26 13:44:44;;;;;;;;;;;;;;;;;;5052136;28;20155;-71
2023/09/26 13:47:10;;;;;;;;;;;;;;;;;;5051841;28;20065;-70
2023/09/26 13:49:36;;;;;;;;;;;;;;;;;;5052334;28;19987;-71
2023/09/26 13:52:03;;;;;;;;;;;;;;;;;;5051986;28;19986;-72
2023/09/26 13:54:30;;;;;;;;;;;;;;;;;;5051926;28;20016;-71
2023/09/26 13:56:56;;;;;;;;;;;;;;;;;;5052202;28;19993;-71
2023/09/26 13:59:21;;;;;;;;;;;;;;;;;;5051845;28;20014;-71
2023/09/26 14:01:47;;;;;;;;;;;;;;;;;;5051699;28;19982;-71
2023/09/26 14:04:13;;;;;;;;;;;;;;;;;;5052087;28;20025;-71
2023/09/26 14:06:39;;;;;;;;;;;;;;;;;;5051597;28;19997;-72
2023/09/26 14:09:05;;;;;;;;;;;;;;;;;;5052052;28;20032;-71
2023/09/26 14:11:31;;;;;;;;;;;;;;;;;;5051548;28;19985;-70
2023/09/26 14:13:57;;;;;;;;;;;;;;;;;;5051871;28;19993;-70
2023/09/26 14:16:24;;;;;;;;;;;;;;;;;;5052019;28;19989;-70
2023/09/26 14:18:50;;;;;;;;;;;;;;;;;;5051728;28;20016;-71
2023/09/26 14:21:17;;;;;;;;;;;;;;;;;;5051622;28;20365;-71
2023/09/26 14:23:43;;;;;;;;;;;;;;;;;;5051809;28;19986;-71
2023/09/26 14:26:09;;;;;;;;;;;;;;;;;;5051648;28;20043;-71
2023/09/26 14:28:35;;;;;;;;;;;;;;;;;;5052032;28;19986;-72
2023/09/26 14:31:01;;;;;;;;;;;;;;;;;;5051549;28;20078;-71
2023/09/26 14:33:27;;;;;;;;;;;;;;;;;;5051372;28;19986;-71
2023/09/26 14:35:53;;;;;;;;;;;;;;;;;;5051854;28;19986;-71
2023/09/26 14:38:19;;;;;;;;;;;;;;;;;;5052052;28;20506;-71
2023/09/26 14:40:45;;;;;;;;;;;;;;;;;;5051358;28;20013;-70
2023/09/26 14:43:11;;;;;;;;;;;;;;;;;;5051244;28;19990;-70
2023/09/26 14:45:36;;;;;;;;;;;;;;;;;;5051591;28;20088;-71
2023/09/26 14:48:04;;;;;;;;;;;;;;;;;;5050092;28;19985;-71
2023/09/26 14:50:30;;;;;;;;;;;;;;;;;;5051529;28;20465;-72
2023/09/26 14:52:56;;;;;;;;;;;;;;;;;;5051219;28;19986;-72
2023/09/26 14:55:22;;;;;;;;;;;;;;;;;;5051152;28;20025;-72
2023/09/26 14:57:47;;;;;;;;;;;;;;;;;;5051276;28;19985;-71
2023/09/26 15:00:14;;;;;;;;;;;;;;;;;;5051092;28;20014;-72
2023/09/26 15:02:39;;;;;;;;;;;;;;;;;;5051046;28;19990;-71
2023/09/26 15:05:05;;;;;;;;;;;;;;;;;;5051254;28;20374;-71
2023/09/26 15:07:31;;;;;;;;;;;;;;;;;;5049942;28;20082;-73
2023/09/26 15:09:58;;;;;;;;;;;;;;;;;;5050993;28;19989;-71
2023/09/26 15:12:24;;;;;;;;;;;;;;;;;;5051246;28;20509;-71
2023/09/26 15:14:50;;;;;;;;;;;;;;;;;;5051099;28;20033;-72
2023/09/26 15:17:16;;;;;;;;;;;;;;;;;;5051431;28;20084;-73
2023/09/26 15:19:41;;;;;;;;;;;;;;;;;;5051214;28;20049;-72
2023/09/26 15:22:07;;;;;;;;;;;;;;;;;;5051050;28;20434;-72
2023/09/26 15:24:33;;;;;;;;;;;;;;;;;;5051201;28;19989;-72
2023/09/26 15:26:59;;;;;;;;;;;;;;;;;;5051220;28;20063;-73
2023/09/26 15:29:25;;;;;;;;;;;;;;;;;;5051116;28;20458;-71
2023/09/26 15:31:52;;;;;;;;;;;;;;;;;;5050656;28;20442;-71
2023/09/26 15:34:18;;;;;;;;;;;;;;;;;;5051080;28;19986;-71
2023/09/26 15:36:44;;;;;;;;;;;;;;;;;;5051309;28;20048;-71
2023/09/26 15:39:10;;;;;;;;;;;;;;;;;;5050798;28;20021;-71
2023/09/26 15:41:36;;;;;;;;;;;;;;;;;;5050940;28;19981;-71
2023/09/26 15:44:02;;;;;;;;;;;;;;;;;;5053746;28;20017;-71
2023/09/26 15:46:29;;;;;;;;;;;;;;;;;;5054620;28;20362;-71
2023/09/26 15:48:55;;;;;;;;;;;;;;;;;;5054421;28;19981;-71
2023/09/26 15:51:21;;;;;;;;;;;;;;;;;;5054562;28;20466;-72
2023/09/26 15:53:48;;;;;;;;;;;;;;;;;;5047387;28;20046;-73
2023/09/26 15:56:14;;;;;;;;;;;;;;;;;;5052426;28;20071;-71
2023/09/26 15:58:40;;;;;;;;;;;;;;;;;;5050679;28;20074;-72
2023/09/26 16:01:06;;;;;;;;;;;;;;;;;;5041209;28;20043;-70
2023/09/26 16:03:32;;;;;;;;;;;;;;;;;;5054167;28;20031;-72
2023/09/26 16:05:58;;;;;;;;;;;;;;;;;;5053714;28;19998;-72
2023/09/26 16:08:24;;;;;;;;;;;;;;;;;;5051631;28;20080;-72
2023/09/26 16:10:50;;;;;;;;;;;;;;;;;;5052801;28;19986;-71
2023/09/26 16:13:16;;;;;;;;;;;;;;;;;;5051277;28;19996;-71
2023/09/26 16:15:45;;;;;;;;;;;;;;;;;;5036742;28;20080;-71
2023/09/26 16:18:11;;;;;;;;;;;;;;;;;;5037214;28;20023;-72
2023/09/26 16:20:39;;;;;;;;;;;;;;;;;;5033843;28;20013;-72
2023/09/26 16:23:05;;;;;;;;;;;;;;;;;;5032213;28;19993;-74
2023/09/26 16:25:31;;;;;;;;;;;;;;;;;;5040089;28;20016;-71
2023/09/26 16:27:57;;;;;;;;;;;;;;;;;;5047708;28;19997;-71
2023/09/26 16:30:23;;;;;;;;;;;;;;;;;;5047393;28;20425;-72
2023/09/26 16:32:49;;;;;;;;;;;;;;;;;;5043214;28;19993;-71
2023/09/26 16:35:15;;;;;;;;;;;;;;;;;;5033267;28;19990;-72
2023/09/26 16:37:40;;;;;;;;;;;;;;;;;;5035168;28;19990;-73